createdAt,value
2019-04-11T00:01:53.486Z,13.46
2019-04-11T00:04:24.246Z,14.37
2019-04-11T00:06:54.100Z,14.07
2019-04-11T00:09:24.881Z,14.27
2019-04-11T00:11:54.806Z,14.04
2019-04-11T00:14:24.484Z,13.95
2019-04-11T00:16:54.300Z,13.84
2019-04-11T00:19:25.212Z,13.67
2019-04-11T00:21:55.243Z,13.30
2019-04-11T00:24:27.111Z,13.23
2019-04-11T00:26:57.079Z,12.98
2019-04-11T00:29:26.785Z,12.93
2019-04-11T00:31:57.013Z,13.05
2019-04-11T00:34:26.942Z,13.02
2019-04-11T00:36:56.847Z,13.11
2019-04-11T00:39:27.801Z,12.89
2019-04-11T00:41:58.537Z,12.92
2019-04-11T00:44:28.401Z,12.95
2019-04-11T00:46:58.502Z,13.00
2019-04-11T00:49:28.344Z,13.05
2019-04-11T00:51:58.301Z,12.97
2019-04-11T00:54:29.020Z,13.15
2019-04-11T00:56:58.852Z,12.99
2019-04-11T00:59:28.562Z,13.18
2019-04-11T01:01:58.896Z,13.37
2019-04-11T01:04:28.719Z,13.08
2019-04-11T01:06:58.568Z,12.97
2019-04-11T01:09:28.478Z,12.92
2019-04-11T01:11:58.485Z,12.56
2019-04-11T01:14:28.277Z,12.70
2019-04-11T01:16:58.840Z,12.54
2019-04-11T01:19:29.072Z,12.32
2019-04-11T01:21:59.525Z,12.81
2019-04-11T01:24:29.202Z,12.59
2019-04-11T01:26:59.330Z,12.26
2019-04-11T01:29:29.337Z,12.10
2019-04-11T01:32:02.303Z,12.10
2019-04-11T01:34:32.922Z,12.18
2019-04-11T01:37:03.731Z,12.55
2019-04-11T01:40:07.954Z,12.63
2019-04-11T01:42:37.721Z,12.73
2019-04-11T01:45:09.593Z,12.73
2019-04-11T01:47:59.374Z,12.59
2019-04-11T01:50:32.852Z,12.69
2019-04-11T01:53:02.736Z,12.67
2019-04-11T01:55:32.632Z,12.86
2019-04-11T01:58:02.616Z,12.62
2019-04-11T02:00:44.788Z,12.38
2019-04-11T02:03:15.675Z,12.77
2019-04-11T02:05:45.368Z,12.53
2019-04-11T02:08:15.393Z,12.65
2019-04-11T02:10:45.353Z,12.72
2019-04-11T02:13:15.401Z,12.97
2019-04-11T02:15:46.222Z,12.79
2019-04-11T02:18:16.121Z,12.81
2019-04-11T02:20:45.871Z,12.91
2019-04-11T02:23:41.409Z,12.88
2019-04-11T02:26:22.090Z,12.92
2019-04-11T02:28:51.709Z,12.88
2019-04-11T02:31:22.861Z,12.88
2019-04-11T02:33:53.080Z,12.85
2019-04-11T02:36:22.809Z,12.99
2019-04-11T02:38:55.091Z,12.99
2019-04-11T02:41:25.468Z,12.91
2019-04-11T02:43:55.202Z,12.96
2019-04-11T02:46:35.578Z,13.11
2019-04-11T02:48:57.182Z,13.26
2019-04-11T02:51:28.827Z,12.93
2019-04-11T02:53:59.366Z,13.19
2019-04-11T02:56:31.097Z,13.22
2019-04-11T02:59:02.249Z,13.31
2019-04-11T03:01:34.134Z,13.13
2019-04-11T03:04:04.968Z,13.27
2019-04-11T03:06:36.233Z,13.33
2019-04-11T03:09:07.710Z,13.46
2019-04-11T03:11:38.681Z,13.24
2019-04-11T03:14:09.807Z,13.40
2019-04-11T03:16:52.072Z,13.21
2019-04-11T03:19:25.070Z,13.04
2019-04-11T03:21:46.471Z,13.17
2019-04-11T03:24:15.472Z,13.39
2019-04-11T03:26:46.290Z,13.75
2019-04-11T03:29:17.634Z,13.42
2019-04-11T03:32:31.587Z,13.60
2019-04-11T03:37:42.962Z,13.24
2019-04-11T03:39:53.160Z,13.15
2019-04-11T03:42:17.430Z,13.41
2019-04-11T03:44:39.472Z,13.22
2019-04-11T03:47:16.687Z,13.36
2019-04-11T03:49:41.932Z,13.45
2019-04-11T03:52:09.787Z,13.41
2019-04-11T03:54:38.921Z,13.59
2019-04-11T03:57:09.868Z,13.64
2019-04-11T03:59:40.712Z,13.52
2019-04-11T04:02:12.569Z,13.74
2019-04-11T04:04:43.628Z,13.86
2019-04-11T04:07:16.429Z,14.31
2019-04-11T04:09:46.307Z,14.23
2019-04-11T04:12:16.753Z,14.29
2019-04-11T04:14:53.941Z,14.63
2019-04-11T04:17:49.620Z,14.12
2019-04-11T04:20:37.380Z,13.77
2019-04-11T04:23:27.359Z,13.49
2019-04-11T04:25:58.812Z,13.12
2019-04-11T04:28:29.423Z,13.21
2019-04-11T04:31:00.234Z,13.09
2019-04-11T04:33:31.386Z,13.11
2019-04-11T04:36:02.555Z,13.47
2019-04-11T04:38:33.857Z,13.12
2019-04-11T04:41:16.727Z,13.10
2019-04-11T04:43:36.726Z,13.88
2019-04-11T04:46:23.720Z,14.22
2019-04-11T04:48:38.094Z,13.88
2019-04-11T04:51:11.162Z,14.16
2019-04-11T04:53:41.055Z,13.83
2019-04-11T04:56:13.276Z,13.75
2019-04-11T04:58:44.226Z,13.66
2019-04-11T05:01:15.201Z,13.93
2019-04-11T05:03:46.622Z,13.75
2019-04-11T05:06:18.632Z,13.44
2019-04-11T05:08:49.984Z,13.03
2019-04-11T05:11:20.960Z,13.24
2019-04-11T05:13:51.839Z,13.73
2019-04-11T05:16:21.714Z,13.86
2019-04-11T05:18:52.492Z,14.07
2019-04-11T05:21:23.315Z,14.13
2019-04-11T05:23:52.958Z,14.37
2019-04-11T05:26:23.615Z,14.55
2019-04-11T05:28:53.385Z,14.71
2019-04-11T05:31:26.975Z,14.71
2019-04-11T05:33:56.743Z,14.88
2019-04-11T05:36:26.385Z,14.87
2019-04-11T05:38:56.046Z,14.58
2019-04-11T05:41:26.209Z,14.55
2019-04-11T05:44:00.794Z,14.50
2019-04-11T05:46:35.209Z,14.26
2019-04-11T05:49:21.067Z,14.02
2019-04-11T05:52:02.104Z,13.88
2019-04-11T05:54:47.433Z,14.13
2019-04-11T05:57:15.877Z,14.39
2019-04-11T05:59:49.916Z,14.12
2019-04-11T06:02:37.663Z,14.05
2019-04-11T06:05:43.170Z,14.10
2019-04-11T06:08:21.351Z,13.84
2019-04-11T06:11:52.178Z,13.84
2019-04-11T06:14:57.915Z,13.68
2019-04-11T06:17:27.519Z,14.06
2019-04-11T06:20:14.922Z,14.20
2019-04-11T06:22:51.321Z,14.28
2019-04-11T06:25:39.096Z,14.47
2019-04-11T06:28:24.329Z,14.52
2019-04-11T06:31:11.877Z,14.89
2019-04-11T06:33:55.258Z,15.48
2019-04-11T06:36:43.405Z,15.32
2019-04-11T06:39:31.979Z,15.40
2019-04-11T06:42:07.719Z,15.61
2019-04-11T06:45:09.218Z,15.73
2019-04-11T06:48:03.186Z,15.97
2019-04-11T06:50:41.721Z,15.81
2019-04-11T06:53:13.262Z,15.93
2019-04-11T06:56:01.810Z,16.48
2019-04-11T06:58:35.510Z,16.40
2019-04-11T07:01:09.839Z,16.06
2019-04-11T07:03:45.002Z,16.48
2019-04-11T07:06:21.855Z,16.47
2019-04-11T07:09:03.298Z,16.79
2019-04-11T07:11:46.214Z,16.55
2019-04-11T07:14:29.144Z,16.45
2019-04-11T07:17:18.887Z,16.42
2019-04-11T07:20:06.738Z,16.43
2019-04-11T07:22:55.288Z,16.23
2019-04-11T07:25:40.098Z,15.85
2019-04-11T07:28:21.389Z,15.86
2019-04-11T07:31:08.520Z,15.85
2019-04-11T07:34:06.201Z,15.75
2019-04-11T07:37:10.490Z,15.48
2019-04-11T07:40:09.321Z,15.83
2019-04-11T07:42:52.122Z,15.91
2019-04-11T07:45:26.613Z,16.02
2019-04-11T07:48:02.839Z,16.44
2019-04-11T07:50:33.324Z,16.02
2019-04-11T07:53:04.877Z,16.08
2019-04-11T07:55:34.797Z,16.41
2019-04-11T07:58:24.657Z,16.25
2019-04-11T08:01:11.098Z,16.49
2019-04-11T08:03:58.277Z,16.85
2019-04-11T08:06:47.948Z,16.43
2019-04-11T08:09:35.789Z,17.32
2019-04-11T08:12:27.607Z,17.05
2019-04-11T08:15:15.453Z,17.15
2019-04-11T08:17:46.096Z,17.32
2019-04-11T08:20:33.391Z,17.27
2019-04-11T08:23:05.661Z,17.10
2019-04-11T08:25:53.644Z,17.04
2019-04-11T08:28:24.714Z,17.22
2019-04-11T08:31:16.219Z,17.29
2019-04-11T08:33:46.735Z,17.12
2019-04-11T08:36:38.182Z,17.62
2019-04-11T08:39:39.598Z,17.12
2019-04-11T08:42:33.995Z,17.34
2019-04-11T08:45:06.026Z,17.53
2019-04-11T08:47:47.680Z,17.19
2019-04-11T08:50:16.997Z,17.34
2019-04-11T08:52:57.788Z,17.55
2019-04-11T08:55:48.550Z,17.29
2019-04-11T08:58:22.621Z,17.38
2019-04-11T09:01:00.433Z,17.74
2019-04-11T09:03:35.229Z,17.75
2019-04-11T09:06:22.935Z,17.49
2019-04-11T09:09:18.811Z,17.93
2019-04-11T09:12:00.539Z,18.02
2019-04-11T09:14:48.531Z,17.92
2019-04-11T09:17:30.429Z,18.49
2019-04-11T09:23:39.337Z,18.80
2019-04-11T09:26:25.855Z,19.00
2019-04-11T09:28:57.729Z,18.96
2019-04-11T09:31:52.327Z,19.26
2019-04-11T09:34:48.225Z,19.01
2019-04-11T09:37:30.052Z,19.17
2019-04-11T09:40:26.086Z,19.46
2019-04-11T09:43:31.676Z,19.53
2019-04-11T09:46:30.299Z,19.31
2019-04-11T09:49:27.196Z,19.46
2019-04-11T09:52:06.029Z,18.82
2019-04-11T09:55:04.479Z,18.90
2019-04-11T09:57:48.159Z,19.05
2019-04-11T10:00:45.221Z,19.17
2019-04-11T10:03:23.992Z,18.89
2019-04-11T10:06:15.975Z,19.06
2019-04-11T10:12:31.879Z,19.03
2019-04-11T10:15:03.026Z,19.57
2019-04-11T10:17:50.703Z,19.68
2019-04-11T10:20:20.416Z,19.84
2019-04-11T10:23:20.897Z,19.63
2019-04-11T10:25:54.038Z,19.14
2019-04-11T10:28:41.778Z,18.89
2019-04-11T10:31:16.341Z,19.11
2019-04-11T10:34:04.595Z,19.21
2019-04-11T10:36:41.898Z,19.66
2019-04-11T10:39:31.645Z,19.26
2019-04-11T10:42:04.347Z,19.17
2019-04-11T10:45:02.754Z,18.89
2019-04-11T10:47:34.053Z,19.32
2019-04-11T10:50:17.417Z,19.63
2019-04-11T10:52:55.581Z,19.37
2019-04-11T10:55:47.557Z,19.80
2019-04-11T10:58:22.560Z,20.14
2019-04-11T11:01:29.376Z,20.18
2019-04-11T11:04:07.927Z,20.36
2019-04-11T11:06:37.962Z,20.59
2019-04-11T11:09:16.360Z,19.97
2019-04-11T11:12:08.522Z,19.75
2019-04-11T11:15:09.540Z,19.58
2019-04-11T11:18:32.091Z,19.67
2019-04-11T11:20:55.046Z,19.26
2019-04-11T11:23:42.942Z,19.16
2019-04-11T11:26:33.896Z,19.26
2019-04-11T11:29:32.021Z,19.04
2019-04-11T11:32:09.195Z,19.19
2019-04-11T11:35:07.391Z,18.98
2019-04-11T11:37:49.181Z,18.89
2019-04-11T11:40:47.961Z,19.03
2019-04-11T11:43:25.878Z,19.51
2019-04-11T11:46:06.834Z,19.49
2019-04-11T11:48:39.536Z,19.21
2019-04-11T11:51:26.947Z,18.87
2019-04-11T11:54:23.998Z,19.07
2019-04-11T11:59:46.068Z,19.11
2019-04-11T12:02:23.614Z,19.36
2019-04-11T12:05:26.319Z,19.30
2019-04-11T12:08:15.338Z,19.04
2019-04-11T12:10:51.444Z,19.03
2019-04-11T12:13:45.870Z,18.96
2019-04-11T12:16:21.320Z,18.71
2019-04-11T12:18:58.377Z,18.62
2019-04-11T12:21:31.398Z,18.79
2019-04-11T12:24:29.413Z,18.54
2019-04-11T12:27:23.051Z,18.55
2019-04-11T12:30:10.905Z,18.49
2019-04-11T12:33:01.667Z,18.59
2019-04-11T12:35:52.833Z,18.49
2019-04-11T12:38:56.490Z,18.13
2019-04-11T12:41:47.518Z,18.34
2019-04-11T12:44:51.126Z,18.23
2019-04-11T12:47:25.985Z,18.15
2019-04-11T12:50:29.552Z,18.09
2019-04-11T12:53:13.144Z,18.15
2019-04-11T12:56:00.279Z,18.09
2019-04-11T12:58:42.315Z,18.13
2019-04-11T13:01:30.650Z,18.24
2019-04-11T13:04:37.452Z,18.29
2019-04-11T13:07:35.343Z,18.32
2019-04-11T13:10:19.503Z,18.57
2019-04-11T13:13:11.174Z,18.94
2019-04-11T13:15:49.490Z,18.76
2019-04-11T13:18:36.584Z,18.71
2019-04-11T13:21:27.682Z,18.79
2019-04-11T13:24:16.184Z,18.83
2019-04-11T13:27:09.788Z,18.57
2019-04-11T13:30:04.726Z,18.45
2019-04-11T13:32:54.002Z,18.43
2019-04-11T13:35:54.901Z,18.35
2019-04-11T13:38:28.363Z,18.18
2019-04-11T13:44:19.369Z,17.79
2019-04-11T13:46:59.015Z,17.66
2019-04-11T13:49:37.992Z,17.38
2019-04-11T13:52:29.404Z,17.28
2019-04-11T13:55:20.935Z,16.94
2019-04-11T13:58:12.574Z,17.24
2019-04-11T14:00:47.253Z,17.29
2019-04-11T14:03:48.060Z,17.14
2019-04-11T14:06:34.860Z,17.42
2019-04-11T14:09:32.637Z,17.24
2019-04-11T14:12:05.064Z,17.42
2019-04-11T14:14:36.741Z,17.43
2019-04-11T14:17:18.608Z,17.58
2019-04-11T14:20:14.382Z,17.81
2019-04-11T14:23:02.934Z,17.75
2019-04-11T14:25:57.489Z,17.98
2019-04-11T14:28:31.014Z,18.01
2019-04-11T14:31:37.718Z,18.04
2019-04-11T14:34:20.750Z,18.02
2019-04-11T14:37:04.946Z,18.12
2019-04-11T14:39:37.006Z,18.29
2019-04-11T14:42:27.062Z,18.81
2019-04-11T14:44:57.697Z,18.77
2019-04-11T14:47:53.362Z,19.02
2019-04-11T14:50:22.994Z,18.51
2019-04-11T14:53:10.623Z,18.48
2019-04-11T14:55:42.473Z,18.59
2019-04-11T14:58:36.042Z,18.64
2019-04-11T15:01:09.739Z,18.38
2019-04-11T15:04:01.385Z,18.35
2019-04-11T15:07:10.576Z,18.25
2019-04-11T15:09:56.687Z,18.46
2019-04-11T15:12:27.747Z,18.31
2019-04-11T15:18:22.211Z,18.58
2019-04-11T15:21:13.714Z,18.58
2019-04-11T15:23:45.746Z,18.53
2019-04-11T15:26:38.920Z,18.90
2019-04-11T15:29:22.298Z,18.90
2019-04-11T15:32:29.251Z,18.76
2019-04-11T15:35:04.726Z,18.88
2019-04-11T15:38:05.321Z,18.92
2019-04-11T15:40:40.256Z,18.90
2019-04-11T15:43:43.344Z,19.05
2019-04-11T15:46:23.150Z,18.73
2019-04-11T15:49:20.855Z,18.57
2019-04-11T15:51:58.511Z,18.56
2019-04-11T15:54:47.070Z,18.55
2019-04-11T15:57:43.023Z,18.38
2019-04-11T16:00:43.612Z,18.23
2019-04-11T16:03:16.891Z,18.27
2019-04-11T16:06:04.242Z,18.24
2019-04-11T16:08:51.475Z,18.30
2019-04-11T16:11:39.947Z,18.26
2019-04-11T16:14:16.967Z,18.03
2019-04-11T16:17:13.775Z,18.09
2019-04-11T16:20:01.791Z,18.42
2019-04-11T16:22:46.118Z,18.46
2019-04-11T16:25:21.173Z,18.59
2019-04-11T16:28:12.890Z,18.28
2019-04-11T16:30:47.438Z,18.26
2019-04-11T16:33:51.016Z,18.29
2019-04-11T16:36:39.165Z,18.22
2019-04-11T16:39:27.593Z,18.06
2019-04-11T16:43:24.564Z,18.01
2019-04-11T16:46:10.336Z,18.19
2019-04-11T16:48:39.927Z,18.29
2019-04-11T16:51:09.529Z,18.20
2019-04-11T16:53:39.148Z,18.04
2019-04-11T16:56:12.586Z,18.26
2019-04-11T16:59:20.027Z,18.24
2019-04-11T17:01:48.264Z,18.04
2019-04-11T17:04:17.918Z,18.05
2019-04-11T17:07:00.504Z,18.23
2019-04-11T17:09:35.074Z,18.20
2019-04-11T17:12:04.775Z,18.20
2019-04-11T17:14:34.376Z,18.26
2019-04-11T17:17:14.498Z,18.03
2019-04-11T17:19:36.246Z,18.04
2019-04-11T17:22:08.223Z,18.12
2019-04-11T17:24:37.923Z,18.12
2019-04-11T17:27:07.677Z,18.07
2019-04-11T17:29:37.463Z,17.99
2019-04-11T17:32:07.123Z,18.06
2019-04-11T17:34:36.792Z,18.01
2019-04-11T17:41:48.671Z,17.87
2019-04-11T17:44:55.994Z,17.85
2019-04-11T17:47:17.085Z,17.72
2019-04-11T17:49:46.732Z,17.62
2019-04-11T17:52:16.445Z,17.53
2019-04-11T17:54:46.075Z,17.48
2019-04-11T17:57:15.724Z,17.57
2019-04-11T17:59:45.387Z,17.42
2019-04-11T18:02:14.980Z,17.37
2019-04-11T18:04:47.833Z,17.29
2019-04-11T18:07:17.653Z,17.28
2019-04-11T18:09:47.464Z,17.30
2019-04-11T18:12:17.216Z,17.20
2019-04-11T18:14:46.800Z,17.14
2019-04-11T18:17:16.681Z,17.22
2019-04-11T18:19:46.437Z,17.16
2019-04-11T18:22:16.376Z,17.13
2019-04-11T18:24:49.877Z,17.07
2019-04-11T18:27:17.402Z,16.99
2019-04-11T18:29:47.036Z,17.00
2019-04-11T18:32:16.781Z,17.10
2019-04-11T18:34:46.462Z,17.02
2019-04-11T18:37:16.114Z,16.95
2019-04-11T18:39:45.717Z,16.94
2019-04-11T18:42:15.299Z,16.91
2019-04-11T18:44:45.011Z,16.92
2019-04-11T18:47:14.637Z,17.09
2019-04-11T18:49:44.377Z,17.09
2019-04-11T18:52:19.700Z,17.09
2019-04-11T18:54:47.591Z,17.08
2019-04-11T18:57:17.203Z,17.08
2019-04-11T18:59:46.816Z,17.00
2019-04-11T19:02:16.584Z,16.90
2019-04-11T19:04:46.170Z,17.01
2019-04-11T19:07:27.155Z,16.86
2019-04-11T19:09:47.178Z,16.71
2019-04-11T19:12:19.799Z,16.98
2019-04-11T19:14:49.495Z,16.89
2019-04-11T19:17:22.267Z,16.71
2019-04-11T19:19:51.824Z,16.84
2019-04-11T19:22:36.801Z,16.74
2019-04-11T19:24:53.550Z,16.67
2019-04-11T19:27:23.138Z,16.80
2019-04-11T19:29:55.574Z,16.66
2019-04-11T19:32:24.520Z,16.71
2019-04-11T19:34:54.160Z,16.97
2019-04-11T19:37:23.776Z,17.08
2019-04-11T19:39:53.442Z,17.04
2019-04-11T19:42:23.895Z,16.86
2019-04-11T19:44:53.542Z,16.77
2019-04-11T19:47:23.182Z,16.71
2019-04-11T19:49:52.812Z,16.74
2019-04-11T19:52:22.461Z,16.70
2019-04-11T19:54:52.803Z,16.59
2019-04-11T19:57:22.486Z,16.77
2019-04-11T19:59:54.481Z,16.88
2019-04-11T20:02:24.097Z,16.79
2019-04-11T20:04:57.447Z,16.83
2019-04-11T20:07:25.106Z,16.86
2019-04-11T20:09:54.744Z,16.67
2019-04-11T20:12:24.361Z,17.16
2019-04-11T20:14:53.964Z,16.13
2019-04-11T20:17:23.584Z,16.27
2019-04-11T20:20:01.277Z,15.95
2019-04-11T20:22:24.688Z,15.81
2019-04-11T20:24:54.297Z,15.93
2019-04-11T20:27:23.929Z,15.61
2019-04-11T20:29:55.307Z,15.44
2019-04-11T20:32:25.130Z,15.32
2019-04-11T20:34:54.731Z,15.39
2019-04-11T20:37:24.653Z,15.31
2019-04-11T20:39:54.277Z,15.52
2019-04-11T20:42:24.716Z,15.76
2019-04-11T20:44:58.271Z,15.91
2019-04-11T20:47:26.196Z,15.87
2019-04-11T20:49:55.789Z,15.79
2019-04-11T20:52:25.415Z,15.31
2019-04-11T20:54:55.012Z,15.39
2019-04-11T20:57:25.767Z,15.42
2019-04-11T20:59:55.889Z,15.33
2019-04-11T21:02:28.359Z,15.44
2019-04-11T21:04:58.949Z,15.43
2019-04-11T21:07:31.817Z,15.34
2019-04-11T21:10:03.580Z,15.11
2019-04-11T21:12:30.990Z,15.04
2019-04-11T21:15:00.560Z,14.86
2019-04-11T21:17:30.165Z,14.78
2019-04-11T21:19:59.923Z,14.54
2019-04-11T21:22:29.577Z,14.46
2019-04-11T21:24:59.711Z,14.51
2019-04-11T21:27:29.680Z,14.60
2019-04-11T21:30:00.081Z,14.62
2019-04-11T21:32:31.905Z,14.77
2019-04-11T21:35:02.361Z,14.92
2019-04-11T21:37:32.596Z,14.87
2019-04-11T21:40:02.218Z,14.88
2019-04-11T21:42:35.856Z,14.93
2019-04-11T21:45:05.952Z,14.85
2019-04-11T21:47:37.077Z,14.64
2019-04-11T21:50:09.098Z,14.66
2019-04-11T21:52:38.197Z,14.73
2019-04-11T21:55:07.910Z,14.77
2019-04-11T21:57:37.541Z,14.70
2019-04-11T22:00:13.812Z,14.67
2019-04-11T22:02:43.678Z,14.67
2019-04-11T22:05:13.732Z,14.67
2019-04-11T22:07:43.365Z,14.75
2019-04-11T22:10:13.264Z,14.84
2019-04-11T22:12:42.923Z,14.98
2019-04-11T22:15:13.140Z,14.91
2019-04-11T22:17:42.899Z,15.00
2019-04-11T22:20:16.513Z,14.99
2019-04-11T22:22:45.621Z,15.06
2019-04-11T22:25:15.279Z,15.19
2019-04-11T22:27:44.933Z,15.12
2019-04-11T22:30:16.427Z,15.27
2019-04-11T22:32:47.811Z,15.11
2019-04-11T22:35:17.412Z,14.98
2019-04-11T22:37:47.045Z,14.74
2019-04-11T22:40:16.668Z,14.63
2019-04-11T22:42:46.422Z,14.53
2019-04-11T22:45:16.007Z,14.56
2019-04-11T22:47:45.676Z,14.55
2019-04-11T22:50:15.359Z,14.66
2019-04-11T22:52:45.882Z,14.64
2019-04-11T22:55:15.563Z,14.61
2019-04-11T22:57:45.202Z,14.49
2019-04-11T23:00:15.886Z,14.38
2019-04-11T23:02:55.010Z,14.62
2019-04-11T23:05:24.607Z,14.59
2019-04-11T23:07:54.229Z,14.08
2019-04-11T23:10:23.832Z,13.67
2019-04-11T23:12:53.515Z,13.54
2019-04-11T23:15:23.162Z,13.70
2019-04-11T23:17:52.786Z,13.71
2019-04-11T23:20:22.393Z,13.53
2019-04-11T23:22:51.978Z,13.45
2019-04-11T23:25:21.601Z,13.61
2019-04-11T23:27:51.205Z,13.51
2019-04-11T23:30:20.819Z,13.65
2019-04-11T23:32:51.706Z,13.82
2019-04-11T23:35:21.810Z,13.82
2019-04-11T23:37:52.082Z,13.93
2019-04-11T23:40:22.214Z,13.94
2019-04-11T23:42:52.221Z,13.83
2019-04-11T23:45:24.515Z,13.75
2019-04-11T23:47:54.434Z,13.84
2019-04-11T23:50:25.179Z,13.95
2019-04-11T23:52:57.874Z,13.90
2019-04-11T23:55:29.952Z,14.06
2019-04-11T23:58:01.231Z,14.06
